createdAt,value
2023-01-25T00:01:44.343Z,103833.31
2023-01-25T00:04:13.529Z,103829.78
2023-01-25T00:06:41.317Z,103816.66
2023-01-25T00:09:08.988Z,103814.03
2023-01-25T00:11:37.558Z,103805.25
2023-01-25T00:14:05.451Z,103801.78
2023-01-25T00:16:33.254Z,103797.38
2023-01-25T00:19:00.941Z,103795.63
2023-01-25T00:21:30.018Z,103796.47
2023-01-25T00:23:57.855Z,103789.50
2023-01-25T00:26:25.533Z,103787.69
2023-01-25T00:28:53.412Z,103788.56
2023-01-25T00:31:23.342Z,103785.06
2023-01-25T00:33:52.202Z,103779.00
2023-01-25T00:36:33.011Z,103778.97
2023-01-25T00:39:00.676Z,103769.34
2023-01-25T00:41:28.339Z,103771.91
2023-01-25T00:43:56.022Z,103766.66
2023-01-25T00:46:23.871Z,103764.00
2023-01-25T00:48:54.197Z,103766.63
2023-01-25T00:51:21.990Z,103758.72
2023-01-25T00:53:51.025Z,103755.22
2023-01-25T00:56:18.690Z,103751.75
2023-01-25T00:58:46.415Z,103754.34
2023-01-25T01:01:14.286Z,103760.47
2023-01-25T01:03:41.987Z,103765.69
2023-01-25T01:06:10.617Z,103773.63
2023-01-25T01:08:40.124Z,103772.72
2023-01-25T01:11:10.458Z,103774.44
2023-01-25T01:13:38.301Z,103772.69
2023-01-25T01:16:08.280Z,103776.19
2023-01-25T01:18:36.120Z,103775.31
2023-01-25T01:21:03.995Z,103777.94
2023-01-25T01:23:31.916Z,103770.94
2023-01-25T01:26:00.744Z,103772.69
2023-01-25T01:28:30.517Z,103772.69
2023-01-25T01:31:01.123Z,103767.44
2023-01-25T01:33:28.789Z,103768.31
2023-01-25T01:35:56.463Z,103765.69
2023-01-25T01:38:24.125Z,103756.03
2023-01-25T01:40:51.917Z,103757.81
2023-01-25T01:43:20.223Z,103742.03
2023-01-25T01:45:53.948Z,103730.69
2023-01-25T01:48:23.004Z,103728.94
2023-01-25T01:50:53.689Z,103732.47
2023-01-25T01:53:21.526Z,103727.22
2023-01-25T01:55:49.217Z,103723.69
2023-01-25T01:58:16.895Z,103715.81
2023-01-25T02:00:44.567Z,103710.56
2023-01-25T02:03:13.677Z,103715.78
2023-01-25T02:05:44.001Z,103707.94
2023-01-25T02:08:11.910Z,103714.97
2023-01-25T02:10:39.649Z,103716.72
2023-01-25T02:13:07.312Z,103708.84
2023-01-25T02:15:38.402Z,103700.97
2023-01-25T02:18:06.213Z,103700.06
2023-01-25T02:20:37.501Z,103694.78
2023-01-25T02:23:09.646Z,103704.44
2023-01-25T02:25:38.729Z,103696.50
2023-01-25T02:28:08.356Z,103710.53
2023-01-25T02:30:36.171Z,103715.75
2023-01-25T02:33:03.842Z,103704.34
2023-01-25T02:35:39.314Z,103707.81
2023-01-25T02:38:06.984Z,103703.44
2023-01-25T02:40:36.034Z,103706.03
2023-01-25T02:43:05.043Z,103697.25
2023-01-25T02:45:32.751Z,103699.88
2023-01-25T02:48:00.451Z,103691.09
2023-01-25T02:50:28.220Z,103693.75
2023-01-25T02:52:55.890Z,103693.75
2023-01-25T02:55:23.561Z,103697.25
2023-01-25T02:57:51.261Z,103685.00
2023-01-25T03:00:20.570Z,103686.72
2023-01-25T03:02:48.307Z,103693.72
2023-01-25T03:05:16.232Z,103685.84
2023-01-25T03:07:43.960Z,103691.06
2023-01-25T03:10:12.519Z,103689.34
2023-01-25T03:12:40.164Z,103685.81
2023-01-25T03:15:09.899Z,103682.28
2023-01-25T03:17:39.083Z,103685.81
2023-01-25T03:20:07.625Z,103684.09
2023-01-25T03:22:35.330Z,103685.84
2023-01-25T03:25:03.092Z,103686.72
2023-01-25T03:27:30.903Z,103680.66
2023-01-25T03:29:58.573Z,103678.88
2023-01-25T03:32:26.405Z,103678.84
2023-01-25T03:34:55.459Z,103681.47
2023-01-25T03:37:23.112Z,103674.47
2023-01-25T03:39:50.790Z,103670.09
2023-01-25T03:42:18.437Z,103670.09
2023-01-25T03:44:46.133Z,103672.69
2023-01-25T03:47:13.869Z,103670.94
2023-01-25T03:49:41.564Z,103667.41
2023-01-25T03:52:10.603Z,103656.06
2023-01-25T03:54:38.280Z,103658.69
2023-01-25T03:57:06.044Z,103652.59
2023-01-25T03:59:33.720Z,103651.75
2023-01-25T04:02:02.899Z,103650.84
2023-01-25T04:04:30.894Z,103647.38
2023-01-25T04:06:58.562Z,103642.97
2023-01-25T04:09:27.580Z,103637.72
2023-01-25T04:11:55.244Z,103640.34
2023-01-25T04:14:38.743Z,103635.06
2023-01-25T04:17:10.867Z,103621.94
2023-01-25T04:19:38.586Z,103621.94
2023-01-25T04:22:06.251Z,103619.31
2023-01-25T04:24:35.279Z,103611.41
2023-01-25T04:27:02.943Z,103603.53
2023-01-25T04:29:40.662Z,103612.31
2023-01-25T04:32:09.340Z,103601.78
2023-01-25T04:34:37.122Z,103607.03
2023-01-25T04:37:04.825Z,103598.31
2023-01-25T04:39:32.502Z,103600.94
2023-01-25T04:42:01.503Z,103589.56
2023-01-25T04:44:29.156Z,103598.34
2023-01-25T04:46:56.838Z,103590.50
2023-01-25T04:49:24.543Z,103600.13
2023-01-25T04:51:52.202Z,103591.38
2023-01-25T04:54:19.865Z,103592.25
2023-01-25T04:56:47.581Z,103587.88
2023-01-25T04:59:16.675Z,103586.97
2023-01-25T05:01:44.454Z,103573.88
2023-01-25T05:04:12.108Z,103584.31
2023-01-25T05:06:39.777Z,103575.50
2023-01-25T05:09:07.442Z,103579.91
2023-01-25T05:11:35.133Z,103578.13
2023-01-25T05:14:02.791Z,103580.75
2023-01-25T05:16:31.852Z,103575.47
2023-01-25T05:18:59.553Z,103575.44
2023-01-25T05:21:59.104Z,103571.00
2023-01-25T05:24:26.884Z,103566.63
2023-01-25T05:27:03.869Z,103565.72
2023-01-25T05:29:32.422Z,103571.06
2023-01-25T05:32:01.492Z,103561.47
2023-01-25T05:34:29.224Z,103561.50
2023-01-25T05:36:56.876Z,103570.28
2023-01-25T05:39:24.623Z,103579.06
2023-01-25T05:41:52.331Z,103576.50
2023-01-25T05:44:20.004Z,103573.00
2023-01-25T05:46:47.667Z,103579.16
2023-01-25T05:49:16.766Z,103568.66
2023-01-25T05:51:44.462Z,103573.06
2023-01-25T05:54:14.537Z,103568.69
2023-01-25T05:56:42.231Z,103575.75
2023-01-25T05:59:11.101Z,103569.59
2023-01-25T06:01:38.811Z,103568.72
2023-01-25T06:04:06.701Z,103563.47
2023-01-25T06:06:35.737Z,103571.34
2023-01-25T06:09:03.408Z,103581.00
2023-01-25T06:11:31.146Z,103581.94
2023-01-25T06:13:58.824Z,103581.94
2023-01-25T06:16:27.574Z,103574.00
2023-01-25T06:18:55.321Z,103565.22
2023-01-25T06:21:22.970Z,103576.53
2023-01-25T06:23:51.998Z,103574.72
2023-01-25T06:26:19.698Z,103577.34
2023-01-25T06:28:47.378Z,103569.44
2023-01-25T06:31:16.618Z,103565.91
2023-01-25T06:33:44.430Z,103568.53
2023-01-25T06:36:13.467Z,103565.03
2023-01-25T06:38:41.248Z,103569.34
2023-01-25T06:41:12.247Z,103572.81
2023-01-25T06:43:40.076Z,103562.25
2023-01-25T06:46:08.602Z,103563.94
2023-01-25T06:48:36.479Z,103558.66
2023-01-25T06:51:05.318Z,103564.75
2023-01-25T06:53:34.091Z,103565.56
2023-01-25T06:56:02.184Z,103555.00
2023-01-25T06:58:31.521Z,103550.63
2023-01-25T07:01:01.276Z,103556.78
2023-01-25T07:03:29.199Z,103548.91
2023-01-25T07:06:00.416Z,103544.59
2023-01-25T07:08:28.150Z,103547.22
2023-01-25T07:10:56.523Z,103542.88
2023-01-25T07:13:24.527Z,103535.00
2023-01-25T07:15:57.352Z,103542.91
2023-01-25T07:18:25.249Z,103533.28
2023-01-25T07:20:52.946Z,103529.91
2023-01-25T07:23:20.962Z,103522.03
2023-01-25T07:25:49.287Z,103522.97
2023-01-25T07:28:17.442Z,103530.03
2023-01-25T07:30:45.227Z,103520.44
2023-01-25T07:33:14.283Z,103501.25
2023-01-25T07:35:41.953Z,103516.13
2023-01-25T07:38:09.621Z,103509.97
2023-01-25T07:40:37.327Z,103510.84
2023-01-25T07:43:05.828Z,103507.31
2023-01-25T07:45:33.614Z,103502.06
2023-01-25T07:48:01.376Z,103505.50
2023-01-25T07:50:30.413Z,103502.00
2023-01-25T07:52:59.390Z,103496.69
2023-01-25T07:55:27.128Z,103500.19
2023-01-25T07:57:55.899Z,103493.19
2023-01-25T08:00:25.001Z,103497.53
2023-01-25T08:02:52.912Z,103494.91
2023-01-25T08:05:20.638Z,103492.22
2023-01-25T08:07:49.774Z,103485.19
2023-01-25T08:10:17.654Z,103481.66
2023-01-25T08:12:46.642Z,103480.75
2023-01-25T08:15:14.645Z,103475.50
2023-01-25T08:17:42.409Z,103483.38
2023-01-25T08:20:12.529Z,103475.47
2023-01-25T08:22:40.248Z,103478.94
2023-01-25T08:25:10.388Z,103480.69
2023-01-25T08:27:38.307Z,103474.56
2023-01-25T08:30:06.974Z,103472.78
2023-01-25T08:32:37.222Z,103472.81
2023-01-25T08:35:06.858Z,103479.81
2023-01-25T08:37:34.768Z,103479.81
2023-01-25T08:40:02.455Z,103465.78
2023-01-25T08:42:31.476Z,103446.53
2023-01-25T08:44:59.147Z,103448.25
2023-01-25T08:47:26.898Z,103456.06
2023-01-25T08:49:55.350Z,103456.91
2023-01-25T08:52:23.105Z,103456.88
2023-01-25T08:54:50.942Z,103460.34
2023-01-25T08:57:18.620Z,103456.81
2023-01-25T08:59:47.719Z,103452.41
2023-01-25T09:02:15.395Z,103450.69
2023-01-25T09:04:43.200Z,103444.56
2023-01-25T09:07:10.863Z,103435.84
2023-01-25T09:09:38.548Z,103429.72
2023-01-25T09:12:06.915Z,103426.19
2023-01-25T09:14:34.562Z,103415.69
2023-01-25T09:17:03.582Z,103415.69
2023-01-25T09:19:31.449Z,103412.22
2023-01-25T09:21:59.116Z,103406.06
2023-01-25T09:24:26.849Z,103402.59
2023-01-25T09:26:59.605Z,103406.06
2023-01-25T09:29:27.958Z,103401.69
2023-01-25T09:31:55.762Z,103403.41
2023-01-25T09:34:24.827Z,103405.19
2023-01-25T09:36:52.561Z,103404.31
2023-01-25T09:39:20.737Z,103399.94
2023-01-25T09:42:14.693Z,103396.44
2023-01-25T09:44:52.480Z,103407.84
2023-01-25T09:47:22.317Z,103399.16
2023-01-25T09:50:01.692Z,103398.25
2023-01-25T09:52:50.749Z,103393.00
2023-01-25T09:55:19.523Z,103386.88
2023-01-25T09:57:48.038Z,103389.47
2023-01-25T10:00:17.830Z,103378.97
2023-01-25T10:02:48.739Z,103384.25
2023-01-25T10:05:19.414Z,103382.53
2023-01-25T10:07:54.595Z,103374.63
2023-01-25T10:10:22.795Z,103368.47
2023-01-25T10:12:50.470Z,103363.28
2023-01-25T10:15:21.838Z,103364.13
2023-01-25T10:17:58.134Z,103358.91
2023-01-25T10:20:31.541Z,103355.38
2023-01-25T10:23:09.057Z,103351.88
2023-01-25T10:25:37.475Z,103351.88
2023-01-25T10:28:17.465Z,103341.41
2023-01-25T10:30:48.700Z,103338.81
2023-01-25T10:33:17.556Z,103340.56
2023-01-25T10:35:47.955Z,103342.38
2023-01-25T10:38:19.292Z,103344.97
2023-01-25T10:40:48.144Z,103338.88
2023-01-25T10:43:18.076Z,103337.16
2023-01-25T10:45:45.789Z,103327.53
2023-01-25T10:48:16.853Z,103319.69
2023-01-25T10:50:50.593Z,103309.25
2023-01-25T10:53:26.619Z,103307.50
2023-01-25T10:55:57.656Z,103298.75
2023-01-25T10:58:36.306Z,103299.66
2023-01-25T11:01:06.866Z,103285.63
2023-01-25T11:03:35.943Z,103290.03
2023-01-25T11:06:06.837Z,103283.88
2023-01-25T11:08:35.887Z,103278.63
2023-01-25T11:11:15.875Z,103272.53
2023-01-25T11:13:43.601Z,103269.97
2023-01-25T11:16:29.156Z,103263.88
2023-01-25T11:18:57.577Z,103255.13
2023-01-25T11:21:27.102Z,103260.38
2023-01-25T11:24:18.028Z,103258.59
2023-01-25T11:26:45.791Z,103251.63
2023-01-25T11:29:15.591Z,103241.09
2023-01-25T11:31:46.232Z,103235.03
2023-01-25T11:34:15.104Z,103224.59
2023-01-25T11:37:01.743Z,103228.09
2023-01-25T11:39:37.971Z,103221.16
2023-01-25T11:42:12.424Z,103219.34
2023-01-25T11:45:08.441Z,103211.44
2023-01-25T11:47:44.290Z,103200.91
2023-01-25T11:50:14.880Z,103193.00
2023-01-25T11:53:07.733Z,103191.25
2023-01-25T11:55:37.756Z,103184.28
2023-01-25T11:58:12.839Z,103174.66
2023-01-25T12:00:49.759Z,103173.75
2023-01-25T12:03:49.802Z,103172.00
2023-01-25T12:06:19.129Z,103166.75
2023-01-25T12:09:08.970Z,103160.63
2023-01-25T12:11:44.545Z,103145.72
2023-01-25T12:14:15.507Z,103142.25
2023-01-25T12:16:50.992Z,103137.88
2023-01-25T12:19:40.178Z,103122.13
2023-01-25T12:22:17.338Z,103125.66
2023-01-25T12:24:51.926Z,103126.50
2023-01-25T12:27:26.397Z,103127.41
2023-01-25T12:29:56.476Z,103114.31
2023-01-25T12:32:25.627Z,103113.41
2023-01-25T12:35:01.611Z,103093.34
2023-01-25T12:37:31.182Z,103094.22
2023-01-25T12:40:01.730Z,103081.97
2023-01-25T12:42:32.568Z,103080.25
2023-01-25T12:45:00.988Z,103081.13
2023-01-25T12:47:32.890Z,103078.50
2023-01-25T12:50:02.363Z,103071.53
2023-01-25T12:52:31.808Z,103069.78
2023-01-25T12:55:02.961Z,103058.47
2023-01-25T12:57:33.951Z,103048.84
2023-01-25T13:00:04.568Z,103043.59
2023-01-25T13:02:43.269Z,103047.09
2023-01-25T13:05:18.150Z,103045.34
2023-01-25T13:07:54.291Z,103040.94
2023-01-25T13:10:27.075Z,103025.22
2023-01-25T13:12:55.198Z,103020.88
2023-01-25T13:15:36.706Z,103011.25
2023-01-25T13:18:27.214Z,103007.75
2023-01-25T13:20:55.441Z,103014.72
2023-01-25T13:23:31.891Z,103011.25
2023-01-25T13:26:39.571Z,103003.41
2023-01-25T13:29:52.179Z,103001.63
2023-01-25T13:33:05.593Z,102982.41
2023-01-25T13:35:44.968Z,102974.56
2023-01-25T13:38:36.760Z,102978.00
2023-01-25T13:41:11.997Z,102971.94
2023-01-25T13:43:44.276Z,102975.41
2023-01-25T13:46:13.791Z,102971.91
2023-01-25T13:48:58.931Z,102971.03
2023-01-25T13:51:28.548Z,102961.44
2023-01-25T13:53:57.167Z,102964.03
2023-01-25T13:56:26.488Z,102959.66
2023-01-25T13:58:54.223Z,102956.25
2023-01-25T14:01:23.793Z,102955.41
2023-01-25T14:03:52.493Z,102953.59
2023-01-25T14:06:23.220Z,102953.59
2023-01-25T14:08:52.302Z,102955.34
2023-01-25T14:11:20.746Z,102945.69
2023-01-25T14:13:58.789Z,102954.44
2023-01-25T14:16:27.461Z,102947.41
2023-01-25T14:18:55.171Z,102943.06
2023-01-25T14:21:23.594Z,102940.44
2023-01-25T14:23:53.267Z,102939.50
2023-01-25T14:26:23.106Z,102939.50
2023-01-25T14:29:01.192Z,102936.06
2023-01-25T14:31:32.285Z,102934.25
2023-01-25T14:33:59.995Z,102933.38
2023-01-25T14:36:28.650Z,102936.88
2023-01-25T14:38:57.822Z,102944.75
2023-01-25T14:41:27.522Z,102947.34
2023-01-25T14:43:56.065Z,102943.81
2023-01-25T14:46:28.187Z,102936.00
2023-01-25T14:49:15.090Z,102937.75
2023-01-25T14:51:43.589Z,102940.38
2023-01-25T14:54:17.931Z,102936.88
2023-01-25T14:56:46.397Z,102943.91
2023-01-25T14:59:32.703Z,102934.28
2023-01-25T15:02:02.342Z,102939.56
2023-01-25T15:04:30.060Z,102926.44
2023-01-25T15:07:01.208Z,102931.69
2023-01-25T15:09:40.064Z,102926.47
2023-01-25T15:12:25.012Z,102934.31
2023-01-25T15:14:53.691Z,102929.09
2023-01-25T15:17:41.180Z,102928.19
2023-01-25T15:20:33.651Z,102911.63
2023-01-25T15:23:02.592Z,102904.66
2023-01-25T15:25:31.722Z,102909.03
2023-01-25T15:27:59.403Z,102908.19
2023-01-25T15:30:27.078Z,102901.19
2023-01-25T15:32:54.727Z,102895.94
2023-01-25T15:35:22.386Z,102895.06
2023-01-25T15:37:50.065Z,102886.34
2023-01-25T15:40:18.164Z,102887.19
2023-01-25T15:42:47.228Z,102894.19
2023-01-25T15:45:14.918Z,102891.53
2023-01-25T15:47:42.603Z,102896.75
2023-01-25T15:50:17.301Z,102886.25
2023-01-25T15:52:45.510Z,102884.47
2023-01-25T15:55:13.778Z,102875.69
2023-01-25T15:57:41.470Z,102866.91
2023-01-25T16:00:16.324Z,102873.03
2023-01-25T16:02:44.123Z,102866.91
2023-01-25T16:05:12.032Z,102867.78
2023-01-25T16:07:40.037Z,102871.25
2023-01-25T16:10:10.429Z,102867.69
2023-01-25T16:12:38.379Z,102864.22
2023-01-25T16:15:06.953Z,102858.97
2023-01-25T16:17:35.967Z,102858.09
2023-01-25T16:20:03.946Z,102848.47
2023-01-25T16:22:31.619Z,102848.47
2023-01-25T16:25:01.056Z,102855.50
2023-01-25T16:27:35.689Z,102863.38
2023-01-25T16:30:04.139Z,102872.06
2023-01-25T16:32:31.802Z,102884.34
2023-01-25T16:35:00.931Z,102884.38
2023-01-25T16:37:28.594Z,102882.59
2023-01-25T16:39:56.255Z,102869.50
2023-01-25T16:42:24.096Z,102865.16
2023-01-25T16:44:51.770Z,102855.53
2023-01-25T16:47:19.459Z,102855.50
2023-01-25T16:49:47.130Z,102853.72
2023-01-25T16:52:16.148Z,102845.00
2023-01-25T16:54:43.804Z,102842.38
2023-01-25T16:57:20.234Z,102840.63
2023-01-25T16:59:48.489Z,102834.50
2023-01-25T17:02:16.194Z,102827.50
2023-01-25T17:04:43.959Z,102814.44
2023-01-25T17:07:12.263Z,102815.31
2023-01-25T17:09:41.282Z,102803.94
2023-01-25T17:12:09.361Z,102810.97
2023-01-25T17:14:37.226Z,102808.34
2023-01-25T17:17:05.382Z,102810.09
2023-01-25T17:19:33.202Z,102796.09
2023-01-25T17:22:00.862Z,102798.72
2023-01-25T17:24:29.041Z,102794.34
2023-01-25T17:26:58.235Z,102787.38
2023-01-25T17:29:25.992Z,102780.38
2023-01-25T17:31:53.966Z,102781.28
2023-01-25T17:34:21.948Z,102769.03
2023-01-25T17:36:49.986Z,102755.91
2023-01-25T17:39:19.333Z,102748.94
2023-01-25T17:41:47.794Z,102741.94
2023-01-25T17:44:20.018Z,102742.81
2023-01-25T17:46:47.712Z,102753.28
2023-01-25T17:49:16.668Z,102751.56
2023-01-25T17:51:44.397Z,102752.47
2023-01-25T17:54:12.282Z,102747.22
2023-01-25T17:56:40.052Z,102748.94
2023-01-25T17:59:11.349Z,102737.56
2023-01-25T18:01:42.729Z,102734.97
2023-01-25T18:04:10.542Z,102732.34
2023-01-25T18:06:38.212Z,102723.63
2023-01-25T18:09:07.026Z,102720.13
2023-01-25T18:11:35.838Z,102709.63
2023-01-25T18:14:04.860Z,102712.28
2023-01-25T18:16:32.994Z,102706.13
2023-01-25T18:19:02.149Z,102703.50
2023-01-25T18:21:31.926Z,102705.25
2023-01-25T18:24:00.691Z,102705.25
2023-01-25T18:26:29.655Z,102701.72
2023-01-25T18:28:59.834Z,102696.47
2023-01-25T18:31:27.791Z,102693.00
2023-01-25T18:33:55.530Z,102694.75
2023-01-25T18:36:25.153Z,102694.75
2023-01-25T18:38:52.827Z,102690.34
2023-01-25T18:41:20.547Z,102693.00
2023-01-25T18:43:49.645Z,102686.91
2023-01-25T18:46:17.377Z,102681.69
2023-01-25T18:48:47.147Z,102679.94
2023-01-25T18:51:17.333Z,102679.94
2023-01-25T18:53:47.826Z,102657.22
2023-01-25T18:56:16.266Z,102660.72
2023-01-25T18:58:44.006Z,102659.84
2023-01-25T19:01:12.607Z,102658.09
2023-01-25T19:03:40.311Z,102661.59
2023-01-25T19:06:08.404Z,102652.88
2023-01-25T19:08:40.601Z,102657.25
2023-01-25T19:11:11.438Z,102641.53
2023-01-25T19:13:39.613Z,102633.66
2023-01-25T19:16:08.664Z,102628.44
2023-01-25T19:18:40.557Z,102638.94
2023-01-25T19:21:08.737Z,102643.34
2023-01-25T19:23:36.948Z,102640.72
2023-01-25T19:26:05.195Z,102628.50
2023-01-25T19:28:36.542Z,102629.38
2023-01-25T19:31:07.895Z,102632.00
2023-01-25T19:33:35.698Z,102628.50
2023-01-25T19:36:04.952Z,102638.09
2023-01-25T19:38:32.983Z,102625.94
2023-01-25T19:41:04.780Z,102620.72
2023-01-25T19:43:33.836Z,102618.94
2023-01-25T19:46:09.355Z,102614.59
2023-01-25T19:48:37.247Z,102613.75
2023-01-25T19:51:12.118Z,102611.13
2023-01-25T19:53:40.057Z,102618.13
2023-01-25T19:56:09.120Z,102617.28
2023-01-25T19:58:38.159Z,102614.59
2023-01-25T20:01:07.204Z,102605.00
2023-01-25T20:03:34.920Z,102603.28
2023-01-25T20:06:03.304Z,102592.78
2023-01-25T20:08:31.154Z,102597.13
2023-01-25T20:11:00.128Z,102590.13
2023-01-25T20:13:27.950Z,102597.97
2023-01-25T20:15:57.205Z,102604.13
2023-01-25T20:18:24.944Z,102597.97
2023-01-25T20:20:56.969Z,102594.50
2023-01-25T20:23:24.650Z,102586.59
2023-01-25T20:25:59.035Z,102584.84
2023-01-25T20:28:26.809Z,102580.50
2023-01-25T20:30:54.650Z,102570.88
2023-01-25T20:33:23.722Z,102566.50
2023-01-25T20:35:51.402Z,102570.88
2023-01-25T20:38:19.105Z,102569.09
2023-01-25T20:40:46.776Z,102569.09
2023-01-25T20:43:14.444Z,102558.63
2023-01-25T20:45:42.205Z,102555.13
2023-01-25T20:48:09.897Z,102542.03
2023-01-25T20:50:38.911Z,102532.41
2023-01-25T20:53:06.575Z,102541.16
2023-01-25T20:55:34.531Z,102539.41
2023-01-25T20:58:02.212Z,102545.59
2023-01-25T21:00:30.069Z,102537.72
2023-01-25T21:02:57.745Z,102537.75
2023-01-25T21:05:25.462Z,102534.25
2023-01-25T21:07:54.543Z,102538.63
2023-01-25T21:10:22.278Z,102533.38
2023-01-25T21:12:49.939Z,102542.13
2023-01-25T21:15:18.762Z,102545.59
2023-01-25T21:17:46.412Z,102537.75
2023-01-25T21:20:14.130Z,102537.75
2023-01-25T21:22:41.804Z,102532.50
2023-01-25T21:25:12.591Z,102534.22
2023-01-25T21:27:40.299Z,102527.22
2023-01-25T21:30:09.581Z,102533.31
2023-01-25T21:32:37.242Z,102532.41
2023-01-25T21:35:05.470Z,102530.66
2023-01-25T21:37:33.153Z,102527.16
2023-01-25T21:40:00.821Z,102528.94
2023-01-25T21:42:32.289Z,102519.31
2023-01-25T21:45:17.815Z,102513.16
2023-01-25T21:47:45.475Z,102514.03
2023-01-25T21:50:31.010Z,102513.16
2023-01-25T21:52:58.662Z,102513.16
2023-01-25T21:55:26.355Z,102508.75
2023-01-25T21:57:55.392Z,102503.50
2023-01-25T22:00:23.259Z,102505.25
2023-01-25T22:02:51.715Z,102502.63
2023-01-25T22:05:19.419Z,102506.13
2023-01-25T22:07:47.094Z,102493.88
2023-01-25T22:10:14.947Z,102500.00
2023-01-25T22:12:42.663Z,102509.59
2023-01-25T22:15:12.426Z,102503.50
2023-01-25T22:17:40.084Z,102507.00
2023-01-25T22:20:08.973Z,102508.72
2023-01-25T22:22:36.754Z,102508.75
2023-01-25T22:25:04.612Z,102507.84
2023-01-25T22:27:37.868Z,102499.13
2023-01-25T22:30:06.662Z,102486.00
2023-01-25T22:32:35.705Z,102493.00
2023-01-25T22:35:03.414Z,102486.88
2023-01-25T22:37:31.083Z,102489.50
2023-01-25T22:39:58.825Z,102487.75
2023-01-25T22:42:26.549Z,102475.53
2023-01-25T22:44:54.230Z,102470.28
2023-01-25T22:47:21.886Z,102467.66
2023-01-25T22:49:51.112Z,102462.44
2023-01-25T22:52:18.787Z,102471.16
2023-01-25T22:54:46.448Z,102470.28
2023-01-25T22:57:14.140Z,102468.53
2023-01-25T22:59:41.814Z,102465.94
2023-01-25T23:02:09.522Z,102467.66
2023-01-25T23:04:37.315Z,102457.19
2023-01-25T23:07:12.456Z,102463.28
2023-01-25T23:09:41.035Z,102455.44
2023-01-25T23:12:08.789Z,102465.03
2023-01-25T23:14:51.220Z,102462.44
2023-01-25T23:17:36.810Z,102465.03
2023-01-25T23:20:04.947Z,102459.81
2023-01-25T23:22:34.115Z,102455.44
2023-01-25T23:25:01.846Z,102453.69
2023-01-25T23:27:29.496Z,102455.44
2023-01-25T23:29:57.169Z,102454.56
2023-01-25T23:32:24.848Z,102449.31
2023-01-25T23:34:53.376Z,102452.81
2023-01-25T23:37:22.885Z,102438.81
2023-01-25T23:39:51.973Z,102444.94
2023-01-25T23:42:19.675Z,102436.22
2023-01-25T23:44:47.361Z,102437.97
2023-01-25T23:47:15.014Z,102430.97
2023-01-25T23:49:42.687Z,102435.38
2023-01-25T23:52:10.360Z,102428.38
2023-01-25T23:54:38.022Z,102426.66
2023-01-25T23:57:07.080Z,102421.41
2023-01-25T23:59:34.883Z,102418.78
